Time;durP1;ratioP1;P1;durP2;ratioP2;P2;SDS_P1;SDS_P2;PMS_P1;PMS_P2;Temp;Humidity;BMP_temperature;BMP_pressure;BME280_temperature;BME280_humidity;BME280_pressure;Samples;Min_cycle;Max_cycle;Signal;HPM_P1;HPM_P2
2022/01/25 00:28:27;;;;;;;70.20;37.08;;;4.00;99.90;;;;;;5010588;28;20041;-68
2022/01/25 00:31:01;;;;;;;72.80;37.30;;;4.00;99.90;;;;;;5007938;28;20509;-68
2022/01/25 00:33:29;;;;;;;69.68;37.70;;;4.00;99.90;;;;;;5017165;28;20590;-67
2022/01/25 00:35:55;;;;;;;67.75;37.35;;;4.00;99.90;;;;;;5023253;28;20055;-68
2022/01/25 00:38:21;;;;;;;72.53;37.53;;;4.00;99.90;;;;;;5033475;28;20067;-67
2022/01/25 00:40:47;;;;;;;72.45;38.17;;;4.00;99.90;;;;;;5032870;28;20468;-67
2022/01/25 00:43:13;;;;;;;69.93;37.67;;;4.00;99.90;;;;;;5012166;28;20124;-68
2022/01/25 00:45:39;;;;;;;68.05;36.33;;;4.10;99.90;;;;;;5014490;28;20045;-67
2022/01/25 00:48:06;;;;;;;70.40;37.30;;;4.00;99.90;;;;;;5028974;28;20151;-68
2022/01/25 00:50:39;;;;;;;68.22;37.97;;;4.00;99.90;;;;;;5015694;28;20218;-66
2022/01/25 00:55:33;;;;;;;68.03;37.03;;;4.00;99.90;;;;;;5023241;28;20036;-67
2022/01/25 00:58:00;;;;;;;71.70;38.03;;;4.00;99.90;;;;;;5027638;28;20048;-67
2022/01/25 01:00:28;;;;;;;73.28;37.83;;;4.00;99.90;;;;;;5026458;28;20104;-67
2022/01/25 01:02:54;;;;;;;68.47;36.20;;;4.00;99.90;;;;;;5031280;28;20503;-67
2022/01/25 01:05:21;;;;;;;71.70;38.33;;;4.00;99.90;;;;;;5007543;28;20084;-66
2022/01/25 01:07:48;;;;;;;77.60;38.92;;;4.00;99.90;;;;;;5025896;28;20555;-67
2022/01/25 01:10:18;;;;;;;72.05;37.22;;;4.00;99.90;;;;;;5043880;28;20446;-67
2022/01/25 01:13:47;;;;;;;74.47;38.85;;;4.00;99.90;;;;;;5029151;28;20052;-66
2022/01/25 01:15:47;;;;;;;70.43;37.17;;;4.00;99.90;;;;;;4994919;28;20071;-67
2022/01/25 01:29:29;;;;;;;73.78;37.55;;;3.90;99.90;;;;;;5045905;28;22093;-67
2022/01/25 01:32:07;;;;;;;71.97;38.15;;;3.90;99.90;;;;;;5025470;28;20194;-67
2022/01/25 01:37:40;;;;;;;70.47;37.47;;;4.00;99.90;;;;;;5025360;28;20079;-68
2022/01/25 01:45:44;;;;;;;71.05;37.88;;;4.00;99.90;;;;;;5038715;28;20037;-67
2022/01/25 01:48:05;;;;;;;70.13;36.67;;;3.90;99.90;;;;;;5026516;28;20768;-67
2022/01/25 01:50:34;;;;;;;72.57;37.85;;;3.90;99.90;;;;;;5029487;28;20044;-67
2022/01/25 01:53:06;;;;;;;70.20;37.25;;;3.90;99.90;;;;;;5013029;28;20920;-67
2022/01/25 01:55:33;;;;;;;74.72;38.47;;;3.90;99.90;;;;;;5011800;28;20399;-67
2022/01/25 01:58:00;;;;;;;71.43;37.60;;;3.90;99.90;;;;;;5011697;28;20048;-66
2022/01/25 02:00:38;;;;;;;75.05;39.33;;;3.90;99.90;;;;;;5015336;28;20048;-67
2022/01/25 02:03:05;;;;;;;69.95;37.20;;;3.90;99.90;;;;;;5028065;28;20057;-67
2022/01/25 02:05:32;;;;;;;70.07;36.72;;;3.90;99.90;;;;;;5017820;28;20091;-67
2022/01/25 02:07:59;;;;;;;70.32;37.15;;;3.90;99.90;;;;;;5021273;28;20080;-67
2022/01/25 02:10:24;;;;;;;69.80;37.92;;;3.90;99.90;;;;;;5031314;28;20041;-67
2022/01/25 02:12:52;;;;;;;69.05;36.88;;;3.90;99.90;;;;;;5033203;28;20050;-67
2022/01/25 02:15:20;;;;;;;75.50;38.67;;;3.90;99.90;;;;;;5002137;28;20044;-67
2022/01/25 02:22:58;;;;;;;73.00;38.30;;;3.90;99.90;;;;;;5044906;28;20049;-66
2022/01/25 02:25:25;;;;;;;69.53;37.97;;;3.90;99.90;;;;;;5025028;28;20119;-67
2022/01/25 02:27:51;;;;;;;72.45;38.60;;;3.90;99.90;;;;;;5034479;28;20051;-67
2022/01/25 02:30:18;;;;;;;74.63;38.53;;;3.90;99.90;;;;;;5049363;28;20507;-67
2022/01/25 02:32:44;;;;;;;72.72;38.67;;;3.90;99.90;;;;;;5028231;28;20399;-67
2022/01/25 02:35:10;;;;;;;70.72;37.75;;;3.90;99.90;;;;;;5047642;28;20247;-66
2022/01/25 02:37:38;;;;;;;67.38;37.05;;;3.90;99.90;;;;;;5015788;28;20069;-67
2022/01/25 02:40:05;;;;;;;71.78;38.45;;;3.90;99.90;;;;;;5029022;28;20055;-66
2022/01/25 02:42:31;;;;;;;75.15;39.00;;;3.90;99.90;;;;;;5047383;28;20399;-67
2022/01/25 02:44:57;;;;;;;72.30;38.83;;;3.90;99.90;;;;;;5046703;28;20044;-67
2022/01/25 02:50:07;;;;;;;70.80;37.92;;;3.90;99.90;;;;;;5025040;28;20040;-67
2022/01/25 02:52:35;;;;;;;73.53;37.60;;;3.90;99.90;;;;;;5016997;28;20044;-67
2022/01/25 02:55:01;;;;;;;76.80;39.38;;;3.90;99.90;;;;;;5033194;28;20045;-67
2022/01/25 02:57:27;;;;;;;74.47;39.35;;;3.90;99.90;;;;;;5027361;28;20165;-66
2022/01/25 02:59:53;;;;;;;73.93;39.28;;;3.90;99.90;;;;;;5020123;28;20067;-66
2022/01/25 03:02:19;;;;;;;70.88;37.47;;;3.90;99.90;;;;;;5028928;28;20407;-67
2022/01/25 03:04:44;;;;;;;75.68;39.08;;;3.90;99.90;;;;;;5029790;28;20048;-67
2022/01/25 03:07:10;;;;;;;73.28;39.90;;;3.90;99.90;;;;;;5030468;28;20127;-67
2022/01/25 03:09:37;;;;;;;74.75;38.35;;;3.90;99.90;;;;;;5031712;28;20036;-67
2022/01/25 03:12:06;;;;;;;76.05;37.75;;;3.90;99.90;;;;;;5031221;28;20159;-67
2022/01/25 03:14:35;;;;;;;71.75;38.33;;;3.90;99.90;;;;;;5035065;28;20080;-67
2022/01/25 03:22:15;;;;;;;65.90;36.38;;;3.90;99.90;;;;;;5029663;28;20119;-67
2022/01/25 03:24:41;;;;;;;76.17;38.27;;;3.80;99.90;;;;;;5016622;28;20052;-66
2022/01/25 03:27:07;;;;;;;64.82;36.72;;;3.80;99.90;;;;;;5043949;28;20310;-67
2022/01/25 03:29:33;;;;;;;72.10;38.25;;;3.90;99.90;;;;;;5035401;28;20045;-67
2022/01/25 03:31:59;;;;;;;67.95;37.40;;;3.80;99.90;;;;;;5027480;28;20044;-67
2022/01/25 03:34:25;;;;;;;70.75;37.72;;;3.90;99.90;;;;;;5027905;28;20064;-68
2022/01/25 03:36:51;;;;;;;70.93;37.47;;;3.90;99.90;;;;;;5036071;28;20048;-67
2022/01/25 03:39:16;;;;;;;77.88;38.63;;;3.90;99.90;;;;;;5017949;28;20094;-67
2022/01/25 03:41:42;;;;;;;72.65;37.22;;;3.90;99.90;;;;;;5028750;28;20052;-67
2022/01/25 03:44:08;;;;;;;74.05;38.72;;;3.90;99.90;;;;;;5028349;28;20128;-68
2022/01/25 03:46:54;;;;;;;74.95;39.03;;;3.90;99.90;;;;;;5022298;28;20041;-67
2022/01/25 03:52:06;;;;;;;72.18;37.90;;;3.90;99.90;;;;;;5047408;28;20048;-67
2022/01/25 03:54:32;;;;;;;74.32;38.35;;;3.90;99.90;;;;;;5028299;28;20846;-68
2022/01/25 03:56:58;;;;;;;71.82;36.80;;;3.90;99.90;;;;;;5025433;28;20151;-67
2022/01/25 03:59:24;;;;;;;74.13;37.45;;;3.90;99.90;;;;;;5030421;28;20156;-67
2022/01/25 04:01:50;;;;;;;72.65;38.55;;;3.90;99.90;;;;;;5028372;28;20052;-67
2022/01/25 04:04:20;;;;;;;74.05;38.25;;;3.90;99.90;;;;;;5026519;28;20495;-67
2022/01/25 04:06:50;;;;;;;74.20;38.80;;;3.90;99.90;;;;;;5028810;28;20205;-67
2022/01/25 04:09:16;;;;;;;71.18;37.28;;;3.80;99.90;;;;;;5027420;28;20056;-67
2022/01/25 04:11:42;;;;;;;72.97;38.25;;;3.90;99.90;;;;;;5030517;28;20037;-67
2022/01/25 04:14:08;;;;;;;71.57;37.30;;;3.90;99.90;;;;;;5035265;28;20048;-67
2022/01/25 04:16:38;;;;;;;72.57;36.78;;;3.90;99.90;;;;;;5015089;28;20492;-67
2022/01/25 04:19:25;;;;;;;71.18;37.90;;;3.80;99.90;;;;;;5046287;28;20049;-67
2022/01/25 04:24:55;;;;;;;66.40;37.35;;;3.90;99.90;;;;;;5017372;28;20076;-67
2022/01/25 04:27:24;;;;;;;76.75;39.17;;;3.90;99.90;;;;;;5016572;28;20065;-67
2022/01/25 04:29:51;;;;;;;76.32;37.55;;;3.90;99.90;;;;;;5043326;28;20130;-67
2022/01/25 04:32:18;;;;;;;79.13;40.15;;;3.80;99.90;;;;;;5027207;28;20155;-67
2022/01/25 04:34:57;;;;;;;76.15;38.63;;;3.80;99.90;;;;;;5027723;28;20091;-68
2022/01/25 04:51:29;;;;;;;74.60;38.50;;;3.80;99.90;;;;;;5026597;28;20645;-67
2022/01/25 04:54:06;;;;;;;72.88;37.92;;;3.80;99.90;;;;;;5033409;28;20500;-67
2022/01/25 04:56:40;;;;;;;74.20;37.88;;;3.80;99.90;;;;;;5016204;28;20071;-67
2022/01/25 04:59:24;;;;;;;76.70;38.13;;;3.80;99.90;;;;;;5022397;28;20075;-67
2022/01/25 05:01:54;;;;;;;79.30;39.33;;;3.80;99.90;;;;;;5028800;28;20444;-67
2022/01/25 05:04:27;;;;;;;71.85;38.00;;;3.90;99.90;;;;;;5022514;28;20567;-67
2022/01/25 05:06:56;;;;;;;72.07;38.25;;;3.90;99.90;;;;;;5011957;28;20499;-68
2022/01/25 05:09:22;;;;;;;73.13;38.60;;;3.80;99.90;;;;;;5025170;28;20042;-67
2022/01/25 05:11:49;;;;;;;75.00;37.75;;;3.90;99.90;;;;;;5006380;28;20048;-67
2022/01/25 05:22:21;;;;;;;78.00;38.05;;;3.90;99.90;;;;;;5022939;28;20065;-67
2022/01/25 05:24:48;;;;;;;71.40;38.03;;;3.90;99.90;;;;;;5024090;28;20385;-68
2022/01/25 05:27:16;;;;;;;73.88;39.70;;;3.80;99.90;;;;;;5022952;28;20041;-68
2022/01/25 05:29:42;;;;;;;75.07;39.03;;;3.90;99.90;;;;;;5009621;28;20131;-67
2022/01/25 05:32:08;;;;;;;75.03;40.40;;;3.80;99.90;;;;;;5024626;28;20045;-69
2022/01/25 05:34:34;;;;;;;77.28;38.53;;;3.80;99.90;;;;;;5023119;28;20052;-67
2022/01/25 05:37:02;;;;;;;76.97;38.50;;;3.80;99.90;;;;;;5009936;28;20049;-68
2022/01/25 05:39:33;;;;;;;78.32;38.83;;;3.90;99.90;;;;;;5013169;28;20067;-67
2022/01/25 05:44:43;;;;;;;74.47;38.53;;;3.90;99.90;;;;;;5022038;28;20124;-67
2022/01/25 05:47:13;;;;;;;74.15;39.47;;;3.90;99.90;;;;;;5023960;28;20053;-67
2022/01/25 05:49:40;;;;;;;74.22;39.90;;;3.90;99.90;;;;;;5012546;28;20491;-67
2022/01/25 05:52:08;;;;;;;77.05;38.70;;;3.90;99.90;;;;;;5010472;28;20811;-67
2022/01/25 05:54:36;;;;;;;74.78;38.65;;;3.90;99.90;;;;;;5020944;28;20488;-68
2022/01/25 05:57:02;;;;;;;73.00;38.78;;;3.90;99.90;;;;;;5021849;28;20048;-67
2022/01/25 05:59:28;;;;;;;73.55;39.10;;;3.90;99.90;;;;;;5009869;28;20060;-68
2022/01/25 06:01:53;;;;;;;77.38;40.00;;;3.90;99.90;;;;;;4983834;28;20080;-66
2022/01/25 06:04:21;;;;;;;77.63;39.47;;;3.90;99.90;;;;;;5026245;28;20499;-67
2022/01/25 06:06:47;;;;;;;81.07;39.47;;;3.90;99.90;;;;;;4992376;28;20080;-67
2022/01/25 06:09:13;;;;;;;79.30;40.55;;;3.90;99.90;;;;;;4979023;28;20124;-67
2022/01/25 06:11:39;;;;;;;81.28;39.47;;;3.90;99.90;;;;;;5039286;28;20486;-67
2022/01/25 06:14:05;;;;;;;71.82;36.70;;;3.90;99.90;;;;;;5013008;28;20048;-67
2022/01/25 06:16:31;;;;;;;80.93;40.92;;;3.90;99.90;;;;;;5024147;28;20392;-67
2022/01/25 06:18:58;;;;;;;76.53;39.55;;;3.90;99.90;;;;;;5008766;28;20113;-67
2022/01/25 06:21:24;;;;;;;71.80;37.75;;;3.80;99.90;;;;;;5022565;28;20163;-67
2022/01/25 06:23:50;;;;;;;72.32;37.83;;;3.90;99.90;;;;;;5022290;28;20176;-67
2022/01/25 06:26:17;;;;;;;77.90;39.95;;;3.90;99.90;;;;;;5026947;28;20045;-67
2022/01/25 06:28:43;;;;;;;78.45;38.85;;;4.00;99.90;;;;;;5009684;28;20076;-68
2022/01/25 06:31:09;;;;;;;75.10;38.88;;;3.90;99.90;;;;;;5025355;28;20070;-67
2022/01/25 06:33:37;;;;;;;77.10;39.28;;;3.90;99.90;;;;;;5033251;28;20511;-68
2022/01/25 06:36:04;;;;;;;79.93;39.60;;;3.90;99.90;;;;;;5019425;28;20154;-67
2022/01/25 06:38:30;;;;;;;76.35;39.55;;;3.90;99.90;;;;;;4978922;28;20537;-67
2022/01/25 06:40:55;;;;;;;75.82;38.13;;;3.90;99.90;;;;;;5040394;28;20070;-67
2022/01/25 06:43:21;;;;;;;73.63;38.13;;;3.90;99.90;;;;;;4999244;28;20484;-67
2022/01/25 06:45:55;;;;;;;77.78;38.92;;;3.90;99.90;;;;;;5020532;28;20049;-67
2022/01/25 06:48:22;;;;;;;76.45;39.00;;;3.90;99.90;;;;;;5012050;28;20734;-67
2022/01/25 06:50:47;;;;;;;73.95;40.38;;;3.90;99.90;;;;;;5008734;28;20048;-68
2022/01/25 06:53:13;;;;;;;75.05;39.95;;;3.90;99.90;;;;;;5032278;28;20059;-67
2022/01/25 06:55:40;;;;;;;80.47;40.83;;;3.90;99.90;;;;;;5029969;28;20049;-67
2022/01/25 06:58:07;;;;;;;79.15;39.58;;;3.90;99.90;;;;;;5025457;28;20067;-67
2022/01/25 07:00:32;;;;;;;80.30;39.50;;;3.90;99.90;;;;;;5027043;28;20058;-67
2022/01/25 07:03:00;;;;;;;76.20;39.17;;;4.00;99.90;;;;;;5016315;28;20080;-68
2022/01/25 07:05:26;;;;;;;75.65;40.13;;;3.90;99.90;;;;;;5010198;28;20130;-68
2022/01/25 07:07:53;;;;;;;83.82;40.13;;;3.90;99.90;;;;;;5025268;28;20045;-67
2022/01/25 07:10:19;;;;;;;82.85;40.05;;;3.90;99.90;;;;;;5030017;28;20037;-70
2022/01/25 07:12:46;;;;;;;81.07;39.47;;;3.90;99.90;;;;;;5031814;28;20090;-71
2022/01/25 07:15:13;;;;;;;82.05;40.72;;;3.90;99.90;;;;;;4999042;28;21301;-71
2022/01/25 07:17:39;;;;;;;76.20;38.20;;;3.90;99.90;;;;;;5009538;28;20055;-71
2022/01/25 07:20:06;;;;;;;81.95;40.30;;;3.90;99.90;;;;;;5011946;28;20053;-70
2022/01/25 07:22:33;;;;;;;80.47;39.72;;;3.90;99.90;;;;;;5028744;28;20083;-70
2022/01/25 07:25:00;;;;;;;77.22;39.38;;;3.90;99.90;;;;;;5017557;28;20049;-71
2022/01/25 07:27:26;;;;;;;78.47;40.17;;;3.90;99.90;;;;;;5012332;28;20049;-70
2022/01/25 07:29:52;;;;;;;76.28;40.17;;;3.90;99.90;;;;;;5015329;28;20048;-70
2022/01/25 07:32:17;;;;;;;83.50;40.33;;;3.90;99.90;;;;;;5000880;28;20046;-70
2022/01/25 07:34:44;;;;;;;76.47;40.67;;;3.90;99.90;;;;;;5029773;28;20044;-71
2022/01/25 07:37:10;;;;;;;83.43;40.67;;;3.90;99.90;;;;;;5027049;28;20073;-71
2022/01/25 07:39:36;;;;;;;81.40;40.95;;;3.90;99.90;;;;;;5015840;28;20049;-70
2022/01/25 07:42:02;;;;;;;80.95;40.92;;;3.90;99.90;;;;;;5015680;28;20049;-70
2022/01/25 07:44:31;;;;;;;81.65;41.75;;;3.90;99.90;;;;;;5017852;28;20053;-70
2022/01/25 07:46:58;;;;;;;78.60;40.03;;;3.90;99.90;;;;;;5011582;28;20308;-71
2022/01/25 07:49:25;;;;;;;80.35;41.58;;;3.90;99.90;;;;;;5025095;28;20053;-71
2022/01/25 07:51:51;;;;;;;83.45;40.30;;;4.00;99.90;;;;;;5014614;28;20080;-70
2022/01/25 07:54:17;;;;;;;80.32;41.53;;;3.90;99.90;;;;;;5025356;28;20052;-71
2022/01/25 07:56:43;;;;;;;85.00;40.45;;;3.90;99.90;;;;;;5025073;28;20045;-71
2022/01/25 07:59:09;;;;;;;82.60;40.75;;;4.00;99.90;;;;;;5027356;28;20061;-70
2022/01/25 08:01:35;;;;;;;79.30;40.25;;;3.90;99.90;;;;;;5027952;28;20047;-71
2022/01/25 08:04:02;;;;;;;80.35;41.38;;;3.90;99.90;;;;;;4992063;28;20037;-71
2022/01/25 08:06:28;;;;;;;83.22;41.00;;;3.90;99.90;;;;;;4994299;28;20091;-71
2022/01/25 08:08:53;;;;;;;82.22;41.83;;;3.90;99.90;;;;;;5022071;28;20048;-71
2022/01/25 08:11:20;;;;;;;75.63;40.47;;;3.90;99.90;;;;;;4995520;28;20128;-71
2022/01/25 08:13:50;;;;;;;84.72;42.00;;;3.90;99.90;;;;;;5000038;28;20060;-71
2022/01/25 08:16:17;;;;;;;77.47;40.47;;;3.90;99.90;;;;;;5004949;28;20105;-71
2022/01/25 08:18:43;;;;;;;85.22;40.33;;;3.90;99.90;;;;;;5041069;28;20485;-71
2022/01/25 08:21:10;;;;;;;80.93;41.58;;;3.90;99.90;;;;;;5006639;28;20049;-71
2022/01/25 08:23:40;;;;;;;84.07;40.78;;;3.90;99.90;;;;;;5017344;28;20099;-71
2022/01/25 08:26:06;;;;;;;83.63;42.03;;;3.90;99.90;;;;;;4986423;28;20401;-70
2022/01/25 08:28:32;;;;;;;84.30;40.72;;;3.90;99.90;;;;;;4987093;28;20636;-71
2022/01/25 08:30:58;;;;;;;80.85;41.05;;;3.90;99.90;;;;;;5002450;28;20504;-71
2022/01/25 08:33:24;;;;;;;80.93;39.70;;;3.90;99.90;;;;;;5011607;28;20055;-70
2022/01/25 08:35:50;;;;;;;77.95;40.65;;;3.90;99.90;;;;;;5023049;28;20428;-71
2022/01/25 08:38:16;;;;;;;86.40;41.33;;;3.90;99.90;;;;;;5011853;28;20045;-71
2022/01/25 08:40:42;;;;;;;87.82;42.00;;;3.90;99.90;;;;;;5010065;28;20080;-70
2022/01/25 08:43:08;;;;;;;82.90;41.00;;;3.90;99.90;;;;;;5023784;28;20123;-71
2022/01/25 08:45:33;;;;;;;76.30;40.83;;;4.00;99.90;;;;;;5005162;28;20477;-71
2022/01/25 08:47:59;;;;;;;89.65;42.30;;;3.90;99.90;;;;;;4997154;28;20806;-71
2022/01/25 08:50:26;;;;;;;83.43;40.85;;;3.90;99.90;;;;;;5021745;28;20136;-71
2022/01/25 08:52:52;;;;;;;81.18;42.58;;;3.90;99.90;;;;;;5013459;28;20041;-71
2022/01/25 08:55:18;;;;;;;82.97;41.58;;;4.00;99.90;;;;;;5007547;28;20072;-71
2022/01/25 08:57:44;;;;;;;83.25;40.92;;;4.00;99.90;;;;;;5008105;28;23322;-71
2022/01/25 09:00:11;;;;;;;79.38;40.20;;;3.90;99.90;;;;;;5023603;28;20804;-71
2022/01/25 09:02:39;;;;;;;84.60;41.47;;;3.90;99.90;;;;;;5023647;28;20408;-71
2022/01/25 09:05:05;;;;;;;89.47;41.80;;;4.00;99.90;;;;;;4953803;28;20376;-70
2022/01/25 09:07:31;;;;;;;84.78;42.97;;;4.00;99.90;;;;;;5022259;28;20052;-70
2022/01/25 09:09:57;;;;;;;78.70;40.83;;;4.00;99.90;;;;;;5005075;28;20037;-71
2022/01/25 09:12:23;;;;;;;78.68;40.97;;;4.00;99.90;;;;;;5032722;28;20520;-70
2022/01/25 09:14:49;;;;;;;83.25;41.05;;;4.00;99.90;;;;;;5014882;28;20095;-70
2022/01/25 09:17:15;;;;;;;81.72;40.70;;;4.00;99.90;;;;;;5009967;28;20067;-71
2022/01/25 09:19:41;;;;;;;79.03;41.67;;;4.10;99.90;;;;;;4997314;28;20072;-70
2022/01/25 09:22:08;;;;;;;83.25;42.30;;;4.00;99.90;;;;;;5037062;28;20048;-70
2022/01/25 09:24:34;;;;;;;83.88;40.67;;;4.00;99.90;;;;;;5012596;28;20886;-71
2022/01/25 09:27:02;;;;;;;85.97;42.72;;;4.10;99.90;;;;;;5008606;28;20049;-70
2022/01/25 09:29:28;;;;;;;80.40;41.15;;;4.00;99.90;;;;;;5008195;28;22043;-70
2022/01/25 09:31:54;;;;;;;88.13;42.78;;;4.00;99.90;;;;;;5011617;28;20400;-70
2022/01/25 09:34:23;;;;;;;82.32;41.25;;;4.00;99.90;;;;;;5023204;28;20056;-70
2022/01/25 09:36:50;;;;;;;81.53;42.40;;;4.00;99.90;;;;;;5010613;28;20048;-71
2022/01/25 09:39:16;;;;;;;87.63;41.60;;;4.10;99.90;;;;;;5019961;28;20442;-71
2022/01/25 09:41:42;;;;;;;82.15;41.83;;;4.00;99.90;;;;;;5004708;28;20447;-71
2022/01/25 09:44:08;;;;;;;82.35;40.85;;;4.10;99.90;;;;;;5007644;28;20064;-70
2022/01/25 09:46:34;;;;;;;88.38;40.90;;;4.10;99.90;;;;;;5008557;28;20685;-71
2022/01/25 09:49:00;;;;;;;84.18;42.35;;;4.10;99.90;;;;;;5004602;28;20041;-71
2022/01/25 09:51:26;;;;;;;83.38;41.00;;;4.00;99.90;;;;;;5000869;28;20530;-71
2022/01/25 09:53:52;;;;;;;80.05;40.35;;;4.10;99.90;;;;;;5022244;28;20041;-70
2022/01/25 09:56:18;;;;;;;79.40;41.22;;;4.10;99.90;;;;;;4999525;28;20408;-71
2022/01/25 09:58:44;;;;;;;88.80;41.83;;;4.10;99.90;;;;;;5025647;28;20052;-71
2022/01/25 10:01:11;;;;;;;94.32;43.53;;;4.10;99.90;;;;;;5024176;28;20390;-70
2022/01/25 10:03:39;;;;;;;82.03;40.85;;;4.10;99.90;;;;;;5014762;28;20120;-70
2022/01/25 10:06:19;;;;;;;86.75;42.78;;;4.20;99.90;;;;;;5025276;28;20045;-70
2022/01/25 10:08:49;;;;;;;91.82;42.75;;;4.20;99.90;;;;;;5023236;28;20048;-70
2022/01/25 10:11:16;;;;;;;87.18;41.90;;;4.20;99.90;;;;;;5023237;28;20040;-70
2022/01/25 10:13:45;;;;;;;87.28;41.10;;;4.20;99.90;;;;;;5025702;28;20052;-70
2022/01/25 10:16:17;;;;;;;85.32;42.75;;;4.20;99.90;;;;;;5023200;28;20048;-71
2022/01/25 10:18:56;;;;;;;85.22;40.78;;;4.20;99.90;;;;;;5030869;28;20041;-70
2022/01/25 10:21:31;;;;;;;87.97;40.72;;;4.20;99.90;;;;;;5042406;28;20056;-71
2022/01/25 10:24:07;;;;;;;91.30;41.78;;;4.20;99.90;;;;;;5020075;28;20044;-70
2022/01/25 10:26:47;;;;;;;86.65;42.13;;;4.20;99.90;;;;;;5044176;28;20163;-71
2022/01/25 10:29:16;;;;;;;84.97;42.13;;;4.20;99.90;;;;;;5025629;28;20045;-71
2022/01/25 10:31:44;;;;;;;89.47;42.40;;;4.20;99.90;;;;;;5013223;28;20037;-70
2022/01/25 10:34:13;;;;;;;84.63;41.58;;;4.20;99.90;;;;;;5008987;28;20087;-70
2022/01/25 10:36:50;;;;;;;84.38;41.70;;;4.20;99.90;;;;;;5031542;28;20048;-70
2022/01/25 10:39:35;;;;;;;88.03;42.50;;;4.20;99.90;;;;;;5029151;28;20963;-70
2022/01/25 10:42:08;;;;;;;91.13;42.67;;;4.20;99.90;;;;;;5004635;28;20135;-70
2022/01/25 10:45:09;;;;;;;84.60;41.95;;;4.20;99.90;;;;;;5038817;28;20091;-71
2022/01/25 10:47:46;;;;;;;79.13;40.00;;;4.20;99.90;;;;;;5033699;28;20735;-68
2022/01/25 10:50:16;;;;;;;87.47;42.63;;;4.20;99.90;;;;;;5029024;28;20045;-67
2022/01/25 10:52:42;;;;;;;92.13;41.90;;;4.20;99.90;;;;;;5015362;28;20077;-68
2022/01/25 10:55:09;;;;;;;92.18;43.20;;;4.20;99.90;;;;;;5044925;28;20063;-69
2022/01/25 10:57:35;;;;;;;92.43;43.20;;;4.20;99.90;;;;;;5026817;28;20071;-69
2022/01/25 11:00:07;;;;;;;84.25;43.33;;;4.20;99.90;;;;;;5024343;28;20061;-68
2022/01/25 11:02:33;;;;;;;89.82;42.90;;;4.20;99.90;;;;;;5014941;28;20088;-68
2022/01/25 11:05:09;;;;;;;86.75;43.80;;;4.30;99.90;;;;;;5039478;28;20574;-68
2022/01/25 11:07:40;;;;;;;90.53;42.75;;;4.20;99.90;;;;;;4991363;28;20049;-68
2022/01/25 11:10:09;;;;;;;87.82;42.88;;;4.30;99.90;;;;;;4986731;28;20044;-68
2022/01/25 11:12:39;;;;;;;93.78;44.75;;;4.30;99.90;;;;;;5023309;28;20299;-70
2022/01/25 11:15:06;;;;;;;91.55;42.92;;;4.30;99.90;;;;;;5007442;28;20464;-70
2022/01/25 11:17:33;;;;;;;92.05;42.55;;;4.30;99.90;;;;;;5028293;28;20056;-68
2022/01/25 11:20:00;;;;;;;94.78;43.08;;;4.30;99.90;;;;;;4989276;28;20060;-68
2022/01/25 11:22:27;;;;;;;87.50;42.72;;;4.30;99.90;;;;;;4974159;28;20057;-69
2022/01/25 11:24:59;;;;;;;96.43;44.80;;;4.30;99.90;;;;;;4995537;28;20052;-68
2022/01/25 11:27:30;;;;;;;93.93;43.58;;;4.30;99.90;;;;;;5007368;28;20408;-68
2022/01/25 11:30:00;;;;;;;90.00;43.50;;;4.30;99.90;;;;;;5025753;28;20076;-68
2022/01/25 11:32:34;;;;;;;94.20;43.13;;;4.30;99.90;;;;;;5028642;28;20048;-69
2022/01/25 11:35:03;;;;;;;91.57;43.30;;;4.30;99.90;;;;;;5024931;28;20544;-69
2022/01/25 11:37:36;;;;;;;103.30;45.92;;;4.30;99.90;;;;;;5009873;28;20053;-69
2022/01/25 11:40:03;;;;;;;95.18;44.08;;;4.30;99.90;;;;;;5023392;28;20557;-68
2022/01/25 11:42:36;;;;;;;96.03;43.85;;;4.30;99.90;;;;;;5014855;28;20053;-69
2022/01/25 11:45:03;;;;;;;92.72;42.60;;;4.30;99.90;;;;;;4996120;28;20465;-67
2022/01/25 11:47:34;;;;;;;93.70;43.03;;;4.30;99.90;;;;;;5009855;28;20494;-68
2022/01/25 11:50:06;;;;;;;88.03;42.45;;;4.30;99.90;;;;;;5008074;28;20492;-69
2022/01/25 11:52:33;;;;;;;89.32;42.78;;;4.30;99.90;;;;;;5003089;28;20048;-68
2022/01/25 11:55:21;;;;;;;97.78;44.20;;;4.30;99.90;;;;;;4999366;28;20049;-69
2022/01/25 11:57:55;;;;;;;94.22;42.83;;;4.30;99.90;;;;;;5017839;28;20618;-68
2022/01/25 12:00:34;;;;;;;95.60;43.70;;;4.30;99.90;;;;;;5027302;28;20413;-69
2022/01/25 12:03:01;;;;;;;90.85;43.08;;;4.30;99.90;;;;;;5022668;28;20480;-67
2022/01/25 12:05:28;;;;;;;95.03;43.85;;;4.30;99.90;;;;;;5026464;28;20060;-67
2022/01/25 12:08:11;;;;;;;94.75;44.10;;;4.50;99.90;;;;;;5027731;28;20080;-68
2022/01/25 12:10:41;;;;;;;90.90;43.28;;;4.30;99.90;;;;;;5041342;28;20052;-68
2022/01/25 12:13:21;;;;;;;88.65;42.65;;;4.40;99.90;;;;;;5041972;28;20126;-68
2022/01/25 12:16:23;;;;;;;101.15;43.35;;;4.30;99.90;;;;;;5007282;28;20034;-69
2022/01/25 12:18:52;;;;;;;94.63;44.13;;;4.30;99.90;;;;;;5027735;28;20102;-69
2022/01/25 12:24:48;;;;;;;95.80;45.13;;;4.40;99.90;;;;;;5014371;28;20077;-68
2022/01/25 12:27:25;;;;;;;98.00;43.55;;;4.40;99.90;;;;;;5001031;28;20061;-69
2022/01/25 12:30:00;;;;;;;93.47;42.15;;;4.40;99.90;;;;;;5022894;28;20124;-68
2022/01/25 12:32:30;;;;;;;95.00;44.17;;;4.40;99.90;;;;;;5026092;28;20041;-68
2022/01/25 12:35:16;;;;;;;88.78;41.45;;;4.40;99.90;;;;;;5020702;28;20084;-69
2022/01/25 12:37:45;;;;;;;94.88;43.47;;;4.40;99.90;;;;;;5023305;28;20122;-69
2022/01/25 12:40:26;;;;;;;94.60;43.38;;;4.40;99.90;;;;;;5013234;28;20064;-68
2022/01/25 12:42:53;;;;;;;97.88;44.85;;;4.40;99.90;;;;;;5023993;28;20377;-68
2022/01/25 12:45:20;;;;;;;91.63;43.33;;;4.40;99.90;;;;;;5009103;28;20444;-68
2022/01/25 12:47:59;;;;;;;99.80;43.92;;;4.40;99.90;;;;;;5025462;28;20049;-67
2022/01/25 12:50:26;;;;;;;94.53;43.67;;;4.40;99.90;;;;;;5025699;28;20045;-69
2022/01/25 12:52:52;;;;;;;97.25;42.95;;;4.50;99.90;;;;;;5010544;28;20049;-69
2022/01/25 12:55:25;;;;;;;93.90;42.75;;;4.40;99.90;;;;;;5020573;28;20132;-68
2022/01/25 12:57:52;;;;;;;;;;;4.50;99.90;;;;;;5029233;28;20137;-67
2022/01/25 13:00:20;;;;;;;91.63;42.58;;;4.50;99.90;;;;;;5036249;28;19961;-69
2022/01/25 13:02:46;;;;;;;86.53;42.60;;;4.50;99.90;;;;;;5012561;28;20060;-68
2022/01/25 13:05:20;;;;;;;93.30;43.90;;;4.50;99.90;;;;;;5036099;28;20049;-68
2022/01/25 13:07:47;;;;;;;91.03;41.72;;;4.50;99.90;;;;;;5011826;28;20075;-66
2022/01/25 13:10:24;;;;;;;91.82;42.17;;;4.50;99.90;;;;;;5022209;28;20053;-65
2022/01/25 13:12:59;;;;;;;91.00;42.03;;;4.50;99.90;;;;;;4991919;28;20197;-65
2022/01/25 13:18:14;;;;;;;90.75;43.53;;;4.50;99.90;;;;;;5019816;28;20052;-65
2022/01/25 13:20:44;;;;;;;87.68;41.80;;;4.40;99.90;;;;;;5015221;28;20053;-65
2022/01/25 13:23:11;;;;;;;87.85;42.30;;;4.40;99.90;;;;;;5018264;28;20064;-65
2022/01/25 13:26:07;;;;;;;93.28;42.25;;;4.40;99.90;;;;;;5017338;28;20060;-65
2022/01/25 13:28:50;;;;;;;89.65;42.33;;;4.40;99.90;;;;;;5006840;28;20668;-65
2022/01/25 13:31:17;;;;;;;;;;;4.40;99.90;;;;;;5003998;28;20045;-65
2022/01/25 13:33:43;;;;;;;89.70;42.20;;;4.40;99.90;;;;;;5020974;28;19947;-65
2022/01/25 13:36:20;;;;;;;89.68;42.00;;;4.40;99.90;;;;;;5005939;28;20049;-65
2022/01/25 13:38:48;;;;;;;93.22;43.63;;;4.50;99.90;;;;;;5020628;28;20052;-65
2022/01/25 13:41:29;;;;;;;93.00;43.08;;;4.40;99.90;;;;;;5002530;28;20132;-65
2022/01/25 13:46:39;;;;;;;87.15;43.28;;;4.50;99.90;;;;;;5020788;28;20506;-65
2022/01/25 13:49:19;;;;;;;95.90;43.33;;;4.50;99.90;;;;;;5005760;28;20075;-65
2022/01/25 13:51:51;;;;;;;93.50;43.05;;;4.50;99.90;;;;;;5020499;28;20070;-65
2022/01/25 13:54:20;;;;;;;88.13;43.38;;;4.50;99.90;;;;;;4993796;28;20812;-65
2022/01/25 13:56:50;;;;;;;95.40;43.80;;;4.50;99.90;;;;;;5019124;28;20123;-65
2022/01/25 13:59:16;;;;;;;88.07;42.47;;;4.50;99.90;;;;;;5007982;28;20439;-65
2022/01/25 14:01:43;;;;;;;99.75;43.55;;;4.50;99.90;;;;;;5015991;28;20053;-65
2022/01/25 14:04:15;;;;;;;90.03;41.65;;;4.50;99.90;;;;;;5014417;28;22212;-65
2022/01/25 14:06:52;;;;;;;92.05;43.10;;;4.50;99.90;;;;;;5019816;28;20046;-65
2022/01/25 14:09:30;;;;;;;92.03;42.50;;;4.50;99.90;;;;;;5011255;28;20167;-65
2022/01/25 14:25:38;;;;;;;93.65;42.88;;;4.50;99.90;;;;;;5016921;28;20041;-65
2022/01/25 14:28:13;;;;;;;100.38;43.67;;;4.50;99.90;;;;;;5009568;28;20073;-65
2022/01/25 14:30:48;;;;;;;90.50;42.53;;;4.50;99.90;;;;;;5004586;28;20045;-65
2022/01/25 14:33:32;;;;;;;91.03;42.80;;;4.50;99.90;;;;;;5021659;28;20048;-64
2022/01/25 14:36:01;;;;;;;92.82;42.35;;;4.40;99.90;;;;;;5017893;28;20639;-64
2022/01/25 14:38:28;;;;;;;88.43;43.33;;;4.40;99.90;;;;;;5021449;28;20064;-65
2022/01/25 14:41:08;;;;;;;92.50;42.28;;;4.40;99.90;;;;;;5007350;28;20463;-64
2022/01/25 14:43:53;;;;;;;86.55;42.28;;;4.40;99.90;;;;;;5019777;28;20129;-64